createdAt,value
2019-02-15T00:01:55.671Z,82.93
2019-02-15T00:07:13.484Z,82.60
2019-02-15T00:12:31.715Z,82.94
2019-02-15T00:18:11.368Z,83.33
2019-02-15T00:23:29.905Z,83.14
2019-02-15T00:28:47.663Z,83.47
2019-02-15T00:34:05.888Z,82.89
2019-02-15T00:39:24.011Z,82.53
2019-02-15T00:44:42.215Z,82.87
2019-02-15T00:50:19.450Z,82.62
2019-02-15T00:55:52.025Z,83.18
2019-02-15T01:01:28.448Z,83.68
2019-02-15T01:07:11.113Z,83.82
2019-02-15T01:12:37.325Z,82.94
2019-02-15T01:17:54.982Z,83.64
2019-02-15T01:23:12.381Z,83.96
2019-02-15T01:28:37.824Z,84.86
2019-02-15T01:34:05.781Z,84.25
2019-02-15T01:39:45.295Z,84.08
2019-02-15T01:45:16.135Z,84.09
2019-02-15T01:50:33.533Z,84.10
2019-02-15T01:55:50.978Z,84.05
2019-02-15T02:01:08.349Z,84.59
2019-02-15T02:06:26.791Z,84.21
2019-02-15T02:11:45.025Z,84.16
2019-02-15T02:17:04.234Z,84.81
2019-02-15T02:22:21.988Z,84.35
2019-02-15T02:27:39.231Z,84.91
2019-02-15T02:32:57.357Z,85.40
2019-02-15T02:38:14.998Z,85.30
2019-02-15T02:43:32.602Z,84.95
2019-02-15T02:48:50.120Z,84.93
2019-02-15T02:54:07.982Z,84.40
2019-02-15T02:59:25.595Z,84.55
2019-02-15T03:04:43.140Z,84.79
2019-02-15T03:10:01.015Z,84.59
2019-02-15T03:15:18.623Z,84.05
2019-02-15T03:20:36.554Z,83.64
2019-02-15T03:25:53.990Z,84.22
2019-02-15T03:31:11.530Z,84.28
2019-02-15T03:36:46.945Z,84.23
2019-02-15T03:42:04.619Z,84.49
2019-02-15T03:47:24.648Z,84.59
2019-02-15T03:52:46.562Z,84.63
2019-02-15T03:58:04.831Z,84.48
2019-02-15T04:03:22.585Z,84.16
2019-02-15T04:08:40.377Z,84.06
2019-02-15T04:13:58.248Z,84.56
2019-02-15T04:19:15.678Z,84.68
2019-02-15T04:24:33.285Z,84.12
2019-02-15T04:29:51.212Z,83.99
2019-02-15T04:35:08.996Z,84.91
2019-02-15T04:40:27.096Z,84.99
2019-02-15T04:45:44.569Z,85.46
2019-02-15T04:51:02.279Z,84.94
2019-02-15T04:56:19.829Z,85.31
2019-02-15T05:01:37.910Z,84.76
2019-02-15T05:06:55.584Z,85.00
2019-02-15T05:12:14.864Z,85.39
2019-02-15T05:17:32.528Z,84.93
2019-02-15T05:22:50.922Z,84.52
2019-02-15T05:28:09.171Z,84.57
2019-02-15T05:33:26.695Z,85.02
2019-02-15T05:38:44.206Z,84.70
2019-02-15T05:44:01.925Z,85.30
2019-02-15T05:49:19.905Z,85.18
2019-02-15T05:54:37.130Z,84.69
2019-02-15T05:59:54.524Z,84.51
2019-02-15T06:05:12.161Z,85.27
2019-02-15T06:10:29.924Z,85.07
2019-02-15T06:15:47.733Z,85.78
2019-02-15T06:21:05.452Z,85.43
2019-02-15T06:26:22.806Z,85.42
2019-02-15T06:31:40.302Z,85.52
2019-02-15T06:36:57.673Z,85.55
2019-02-15T06:42:15.203Z,85.61
2019-02-15T06:47:33.293Z,85.62
2019-02-15T06:52:51.255Z,85.30
2019-02-15T06:58:09.182Z,85.11
2019-02-15T07:03:45.859Z,85.06
2019-02-15T07:09:03.085Z,85.04
2019-02-15T07:14:21.011Z,84.67
2019-02-15T07:19:38.505Z,84.46
2019-02-15T07:24:56.886Z,84.58
2019-02-15T07:30:15.650Z,84.47
2019-02-15T07:35:32.475Z,83.87
2019-02-15T07:40:49.837Z,82.71
2019-02-15T07:46:07.415Z,82.38
2019-02-15T07:51:25.783Z,81.78
2019-02-15T07:56:44.085Z,80.85
2019-02-15T08:02:02.302Z,79.78
2019-02-15T08:07:19.172Z,79.57
2019-02-15T08:12:36.417Z,78.96
2019-02-15T08:17:54.375Z,78.46
2019-02-15T08:23:11.686Z,77.40
2019-02-15T08:28:29.772Z,76.63
2019-02-15T08:33:47.404Z,75.96
2019-02-15T08:39:06.106Z,76.35
2019-02-15T08:44:24.136Z,75.17
2019-02-15T08:49:41.847Z,73.47
2019-02-15T08:54:59.523Z,74.30
2019-02-15T09:00:17.823Z,72.62
2019-02-15T09:05:35.801Z,72.96
2019-02-15T09:10:53.574Z,66.75
2019-02-15T09:16:10.887Z,70.36
2019-02-15T09:21:28.831Z,67.98
2019-02-15T09:26:49.214Z,68.51
2019-02-15T09:32:06.600Z,68.46
2019-02-15T09:37:24.610Z,66.03
2019-02-15T09:42:42.508Z,64.32
2019-02-15T09:48:00.072Z,64.62
2019-02-15T09:53:18.793Z,63.99
2019-02-15T09:58:36.295Z,61.68
2019-02-15T10:03:55.308Z,62.45
2019-02-15T10:09:12.425Z,62.16
2019-02-15T10:14:30.782Z,58.88
2019-02-15T10:19:49.136Z,57.39
2019-02-15T10:25:07.311Z,57.64
2019-02-15T10:30:25.493Z,55.37
2019-02-15T10:35:43.393Z,56.37
2019-02-15T10:41:00.809Z,53.14
2019-02-15T10:46:18.779Z,49.35
2019-02-15T10:51:36.333Z,42.57
2019-02-15T10:56:53.894Z,39.74
2019-02-15T11:02:13.454Z,38.99
2019-02-15T11:07:31.314Z,38.36
2019-02-15T11:12:49.030Z,32.72
2019-02-15T11:18:06.986Z,30.42
2019-02-15T11:23:25.003Z,28.27
2019-02-15T11:28:42.831Z,24.12
2019-02-15T11:34:01.047Z,23.74
2019-02-15T11:39:18.878Z,25.97
2019-02-15T11:44:36.243Z,29.02
2019-02-15T11:49:54.352Z,29.22
2019-02-15T11:55:12.205Z,28.82
2019-02-15T12:00:32.485Z,27.58
2019-02-15T12:05:50.473Z,26.38
2019-02-15T12:11:07.963Z,24.75
2019-02-15T12:16:25.781Z,24.47
2019-02-15T12:21:43.314Z,24.31
2019-02-15T12:27:01.146Z,25.53
2019-02-15T12:32:18.922Z,24.02
2019-02-15T12:37:37.381Z,25.28
2019-02-15T12:42:54.914Z,25.57
2019-02-15T12:48:13.143Z,29.26
2019-02-15T12:53:30.765Z,30.17
2019-02-15T12:58:48.525Z,29.07
2019-02-15T13:04:06.393Z,29.22
2019-02-15T13:09:24.244Z,28.20
2019-02-15T13:14:41.971Z,26.66
2019-02-15T13:19:59.650Z,26.26
2019-02-15T13:25:17.005Z,24.96
2019-02-15T13:30:34.657Z,25.08
2019-02-15T13:35:53.095Z,23.72
2019-02-15T13:41:10.609Z,24.91
2019-02-15T13:46:27.975Z,23.95
2019-02-15T13:51:45.510Z,24.08
2019-02-15T13:57:03.727Z,25.73
2019-02-15T14:02:21.288Z,27.10
2019-02-15T14:07:38.859Z,26.34
2019-02-15T14:12:57.822Z,25.76
2019-02-15T14:18:15.638Z,27.19
2019-02-15T14:23:33.256Z,30.66
2019-02-15T14:28:51.207Z,27.58
2019-02-15T14:34:09.011Z,29.55
2019-02-15T14:39:26.832Z,27.46
2019-02-15T14:44:45.180Z,30.67
2019-02-15T14:50:03.505Z,29.12
2019-02-15T14:55:21.418Z,30.35
2019-02-15T15:00:39.085Z,28.30
2019-02-15T15:05:59.178Z,34.11
2019-02-15T15:11:17.092Z,38.65
2019-02-15T15:16:34.917Z,41.41
2019-02-15T15:21:52.921Z,44.81
2019-02-15T15:27:11.001Z,44.78
2019-02-15T15:32:30.184Z,49.19
2019-02-15T15:37:48.687Z,53.30
2019-02-15T15:43:06.326Z,56.93
2019-02-15T15:48:24.231Z,58.76
2019-02-15T15:53:43.721Z,61.62
2019-02-15T15:59:01.978Z,63.71
2019-02-15T16:04:19.912Z,65.76
2019-02-15T16:09:37.533Z,67.22
2019-02-15T16:14:55.583Z,66.07
2019-02-15T16:20:14.233Z,67.34
2019-02-15T16:25:31.757Z,67.79
2019-02-15T16:30:50.158Z,68.24
2019-02-15T16:36:08.849Z,69.05
2019-02-15T16:41:26.771Z,69.63
2019-02-15T16:46:47.115Z,71.08
2019-02-15T16:52:04.449Z,71.83
2019-02-15T16:57:22.563Z,71.21
2019-02-15T17:02:40.548Z,73.51
2019-02-15T17:07:58.877Z,72.90
2019-02-15T17:13:25.977Z,74.50
2019-02-15T17:18:51.397Z,74.44
2019-02-15T17:24:02.122Z,73.65
2019-02-15T17:29:19.909Z,74.55
2019-02-15T17:34:38.072Z,74.64
2019-02-15T17:39:55.837Z,75.95
2019-02-15T17:45:14.112Z,75.82
2019-02-15T17:50:31.566Z,76.17
2019-02-15T17:55:49.925Z,76.51
2019-02-15T18:01:08.157Z,76.71
2019-02-15T18:06:25.877Z,76.96
2019-02-15T18:11:44.875Z,77.20
2019-02-15T18:17:03.052Z,77.25
2019-02-15T18:22:21.387Z,78.13
2019-02-15T18:27:39.827Z,78.58
2019-02-15T18:32:59.398Z,79.10
2019-02-15T18:38:17.130Z,79.28
2019-02-15T18:43:35.366Z,79.28
2019-02-15T18:48:53.499Z,79.56
2019-02-15T18:54:20.758Z,80.47
2019-02-15T18:59:38.391Z,80.05
2019-02-15T19:05:01.334Z,80.27
2019-02-15T19:10:20.059Z,80.36
2019-02-15T19:15:41.981Z,81.27
2019-02-15T19:21:01.977Z,80.39
2019-02-15T19:26:17.913Z,80.46
2019-02-15T19:31:37.196Z,80.69
2019-02-15T19:36:56.173Z,79.91
2019-02-15T19:42:18.379Z,81.12
2019-02-15T19:47:40.132Z,80.70
2019-02-15T19:52:57.343Z,80.02
2019-02-15T19:58:15.849Z,79.87
2019-02-15T20:03:33.590Z,80.57
2019-02-15T20:21:41.301Z,80.92
2019-02-15T20:27:00.112Z,80.16
2019-02-15T20:32:19.289Z,79.90
2019-02-15T20:37:39.111Z,81.24
2019-02-15T20:42:57.435Z,82.36
2019-02-15T20:48:17.809Z,80.81
2019-02-15T20:53:36.507Z,80.63
2019-02-15T20:58:55.352Z,79.37
2019-02-15T21:04:13.537Z,80.19
2019-02-15T21:09:31.641Z,81.42
2019-02-15T21:14:50.104Z,81.89
2019-02-15T21:20:09.200Z,81.39
2019-02-15T21:25:27.748Z,82.17
2019-02-15T21:30:45.298Z,81.79
2019-02-15T21:36:03.106Z,80.66
2019-02-15T21:41:20.760Z,81.02
2019-02-15T21:46:40.122Z,80.98
2019-02-15T21:51:58.203Z,81.02
2019-02-15T21:57:16.043Z,80.86
2019-02-15T22:02:34.080Z,81.51
2019-02-15T22:07:51.835Z,82.04
2019-02-15T22:13:10.269Z,82.40
2019-02-15T22:18:27.927Z,82.73
2019-02-15T22:23:47.047Z,82.47
2019-02-15T22:29:05.209Z,82.38
2019-02-15T22:34:23.655Z,82.99
2019-02-15T22:39:41.842Z,83.07
2019-02-15T22:45:09.233Z,83.08
2019-02-15T22:50:35.649Z,82.94
2019-02-15T22:55:45.081Z,82.36
2019-02-15T23:01:16.718Z,82.73
2019-02-15T23:06:34.638Z,81.78
2019-02-15T23:11:52.186Z,82.26
2019-02-15T23:17:10.172Z,81.10
2019-02-15T23:22:27.615Z,81.43
2019-02-15T23:27:45.786Z,81.60
2019-02-15T23:33:03.947Z,81.61
2019-02-15T23:38:21.755Z,81.80
2019-02-15T23:43:40.066Z,81.53
2019-02-15T23:48:57.536Z,82.00
2019-02-15T23:54:15.107Z,81.75
2019-02-15T23:59:32.602Z,81.90
